sensor_id;sensor_type;location;lat;lon;timestamp;P1;durP1;ratioP1;P2;durP2;ratioP2
70373;SDS011;57792;49.198;7.890;2022-08-01T00:00:48;5.55;;;3.00;;
70373;SDS011;57792;49.198;7.890;2022-08-01T00:01:48;7.60;;;3.07;;
70373;SDS011;57792;49.198;7.890;2022-08-01T00:02:48;5.23;;;2.90;;
70373;SDS011;57792;49.198;7.890;2022-08-01T00:03:49;5.35;;;2.92;;
70373;SDS011;57792;49.198;7.890;2022-08-01T00:04:49;5.57;;;3.10;;
70373;SDS011;57792;49.198;7.890;2022-08-01T00:05:50;5.03;;;2.90;;
70373;SDS011;57792;49.198;7.890;2022-08-01T00:06:50;5.27;;;2.60;;
70373;SDS011;57792;49.198;7.890;2022-08-01T00:07:50;4.80;;;2.72;;
70373;SDS011;57792;49.198;7.890;2022-08-01T00:08:51;6.27;;;2.90;;
70373;SDS011;57792;49.198;7.890;2022-08-01T00:09:51;6.27;;;3.03;;
70373;SDS011;57792;49.198;7.890;2022-08-01T00:10:52;5.63;;;3.13;;
70373;SDS011;57792;49.198;7.890;2022-08-01T00:11:52;6.10;;;2.90;;
70373;SDS011;57792;49.198;7.890;2022-08-01T00:12:52;5.73;;;2.87;;
70373;SDS011;57792;49.198;7.890;2022-08-01T00:13:53;5.63;;;2.70;;
70373;SDS011;57792;49.198;7.890;2022-08-01T00:14:53;5.65;;;2.70;;
70373;SDS011;57792;49.198;7.890;2022-08-01T00:15:54;5.17;;;2.97;;
70373;SDS011;57792;49.198;7.890;2022-08-01T00:16:54;4.97;;;2.80;;
70373;SDS011;57792;49.198;7.890;2022-08-01T00:17:54;6.35;;;2.88;;
70373;SDS011;57792;49.198;7.890;2022-08-01T00:18:55;5.83;;;2.83;;
70373;SDS011;57792;49.198;7.890;2022-08-01T00:19:55;6.27;;;3.07;;
70373;SDS011;57792;49.198;7.890;2022-08-01T00:20:55;4.73;;;2.57;;
70373;SDS011;57792;49.198;7.890;2022-08-01T00:21:56;8.37;;;3.30;;
70373;SDS011;57792;49.198;7.890;2022-08-01T00:22:56;5.18;;;2.53;;
70373;SDS011;57792;49.198;7.890;2022-08-01T00:23:56;5.57;;;2.90;;
70373;SDS011;57792;49.198;7.890;2022-08-01T00:24:57;5.00;;;2.67;;
70373;SDS011;57792;49.198;7.890;2022-08-01T00:25:57;5.30;;;3.05;;
70373;SDS011;57792;49.198;7.890;2022-08-01T00:26:58;6.70;;;2.80;;
70373;SDS011;57792;49.198;7.890;2022-08-01T00:27:58;5.83;;;2.80;;
70373;SDS011;57792;49.198;7.890;2022-08-01T00:28:58;5.40;;;3.00;;
70373;SDS011;57792;49.198;7.890;2022-08-01T00:29:59;5.53;;;3.15;;
70373;SDS011;57792;49.198;7.890;2022-08-01T00:30:59;6.30;;;2.80;;
70373;SDS011;57792;49.198;7.890;2022-08-01T00:31:59;5.17;;;2.70;;
70373;SDS011;57792;49.198;7.890;2022-08-01T00:33:00;4.83;;;2.70;;
70373;SDS011;57792;49.198;7.890;2022-08-01T00:34:01;5.27;;;2.77;;
70373;SDS011;57792;49.198;7.890;2022-08-01T00:35:01;4.57;;;2.67;;
70373;SDS011;57792;49.198;7.890;2022-08-01T00:36:02;6.00;;;2.90;;
70373;SDS011;57792;49.198;7.890;2022-08-01T00:37:02;8.47;;;2.77;;
70373;SDS011;57792;49.198;7.890;2022-08-01T00:38:03;4.93;;;2.70;;
70373;SDS011;57792;49.198;7.890;2022-08-01T00:39:03;5.17;;;2.47;;
70373;SDS011;57792;49.198;7.890;2022-08-01T00:40:04;5.20;;;2.90;;
70373;SDS011;57792;49.198;7.890;2022-08-01T00:41:05;5.10;;;2.83;;
70373;SDS011;57792;49.198;7.890;2022-08-01T00:42:06;4.90;;;2.70;;
70373;SDS011;57792;49.198;7.890;2022-08-01T00:43:07;5.83;;;2.70;;
70373;SDS011;57792;49.198;7.890;2022-08-01T00:44:09;5.30;;;2.60;;
70373;SDS011;57792;49.198;7.890;2022-08-01T00:45:10;5.72;;;2.70;;
70373;SDS011;57792;49.198;7.890;2022-08-01T00:46:11;7.43;;;2.97;;
70373;SDS011;57792;49.198;7.890;2022-08-01T00:47:11;5.07;;;2.80;;
70373;SDS011;57792;49.198;7.890;2022-08-01T00:48:12;8.13;;;2.70;;
70373;SDS011;57792;49.198;7.890;2022-08-01T00:49:12;5.63;;;3.00;;
70373;SDS011;57792;49.198;7.890;2022-08-01T00:50:13;4.63;;;2.53;;
70373;SDS011;57792;49.198;7.890;2022-08-01T00:51:13;5.47;;;2.70;;
70373;SDS011;57792;49.198;7.890;2022-08-01T00:52:15;5.78;;;2.88;;
70373;SDS011;57792;49.198;7.890;2022-08-01T00:53:15;4.93;;;2.40;;
70373;SDS011;57792;49.198;7.890;2022-08-01T00:54:15;5.63;;;2.67;;
70373;SDS011;57792;49.198;7.890;2022-08-01T00:55:16;5.80;;;2.53;;
70373;SDS011;57792;49.198;7.890;2022-08-01T00:56:19;4.90;;;2.83;;
70373;SDS011;57792;49.198;7.890;2022-08-01T00:57:21;4.40;;;2.47;;
70373;SDS011;57792;49.198;7.890;2022-08-01T00:58:22;4.77;;;2.50;;
70373;SDS011;57792;49.198;7.890;2022-08-01T00:59:22;5.72;;;2.80;;
70373;SDS011;57792;49.198;7.890;2022-08-01T01:00:23;4.73;;;2.60;;
70373;SDS011;57792;49.198;7.890;2022-08-01T01:01:24;4.82;;;2.33;;
70373;SDS011;57792;49.198;7.890;2022-08-01T01:02:24;5.25;;;2.75;;
70373;SDS011;57792;49.198;7.890;2022-08-01T01:03:25;5.47;;;2.63;;
70373;SDS011;57792;49.198;7.890;2022-08-01T01:04:26;5.22;;;2.70;;
70373;SDS011;57792;49.198;7.890;2022-08-01T01:05:27;4.80;;;2.70;;
70373;SDS011;57792;49.198;7.890;2022-08-01T01:06:31;5.97;;;2.75;;
70373;SDS011;57792;49.198;7.890;2022-08-01T01:07:47;5.28;;;2.50;;
70373;SDS011;57792;49.198;7.890;2022-08-01T01:10:54;4.68;;;2.28;;
70373;SDS011;57792;49.198;7.890;2022-08-01T01:13:13;5.53;;;2.50;;
70373;SDS011;57792;49.198;7.890;2022-08-01T01:14:27;4.90;;;2.50;;
70373;SDS011;57792;49.198;7.890;2022-08-01T01:15:47;5.70;;;2.78;;
70373;SDS011;57792;49.198;7.890;2022-08-01T01:16:53;4.75;;;2.50;;
70373;SDS011;57792;49.198;7.890;2022-08-01T01:17:58;4.20;;;2.13;;
70373;SDS011;57792;49.198;7.890;2022-08-01T01:19:02;5.78;;;2.53;;
70373;SDS011;57792;49.198;7.890;2022-08-01T01:20:06;7.75;;;2.67;;
70373;SDS011;57792;49.198;7.890;2022-08-01T01:26:42;6.20;;;2.90;;
70373;SDS011;57792;49.198;7.890;2022-08-01T01:27:51;5.20;;;2.67;;
70373;SDS011;57792;49.198;7.890;2022-08-01T01:29:16;5.53;;;2.80;;
70373;SDS011;57792;49.198;7.890;2022-08-01T01:30:21;6.28;;;2.95;;
70373;SDS011;57792;49.198;7.890;2022-08-01T01:31:26;5.72;;;2.90;;
70373;SDS011;57792;49.198;7.890;2022-08-01T01:33:34;5.30;;;2.90;;
70373;SDS011;57792;49.198;7.890;2022-08-01T01:34:37;5.32;;;2.58;;
70373;SDS011;57792;49.198;7.890;2022-08-01T01:35:43;5.70;;;2.70;;
70373;SDS011;57792;49.198;7.890;2022-08-01T01:36:47;4.60;;;2.70;;
70373;SDS011;57792;49.198;7.890;2022-08-01T01:37:51;5.15;;;2.60;;
70373;SDS011;57792;49.198;7.890;2022-08-01T01:38:58;5.18;;;2.63;;
70373;SDS011;57792;49.198;7.890;2022-08-01T01:40:00;5.55;;;2.70;;
70373;SDS011;57792;49.198;7.890;2022-08-01T01:41:02;5.13;;;2.30;;
70373;SDS011;57792;49.198;7.890;2022-08-01T01:42:05;5.82;;;2.80;;
70373;SDS011;57792;49.198;7.890;2022-08-01T01:43:07;4.60;;;2.40;;
70373;SDS011;57792;49.198;7.890;2022-08-01T01:44:11;5.68;;;2.53;;
70373;SDS011;57792;49.198;7.890;2022-08-01T01:45:13;4.85;;;2.50;;
70373;SDS011;57792;49.198;7.890;2022-08-01T01:46:15;4.77;;;2.47;;
70373;SDS011;57792;49.198;7.890;2022-08-01T01:47:17;5.15;;;2.58;;
70373;SDS011;57792;49.198;7.890;2022-08-01T01:48:18;5.10;;;2.78;;
70373;SDS011;57792;49.198;7.890;2022-08-01T01:49:21;5.68;;;2.70;;
70373;SDS011;57792;49.198;7.890;2022-08-01T01:50:25;5.43;;;2.70;;
70373;SDS011;57792;49.198;7.890;2022-08-01T01:51:26;4.47;;;2.43;;
70373;SDS011;57792;49.198;7.890;2022-08-01T01:52:28;5.32;;;2.90;;
70373;SDS011;57792;49.198;7.890;2022-08-01T01:53:32;6.10;;;2.78;;
70373;SDS011;57792;49.198;7.890;2022-08-01T01:54:39;6.07;;;2.80;;
70373;SDS011;57792;49.198;7.890;2022-08-01T01:55:43;5.60;;;2.65;;
70373;SDS011;57792;49.198;7.890;2022-08-01T01:56:46;5.65;;;2.50;;
70373;SDS011;57792;49.198;7.890;2022-08-01T01:57:51;5.47;;;2.42;;
70373;SDS011;57792;49.198;7.890;2022-08-01T01:58:54;5.10;;;2.47;;
70373;SDS011;57792;49.198;7.890;2022-08-01T01:59:57;4.88;;;2.53;;
70373;SDS011;57792;49.198;7.890;2022-08-01T02:01:00;4.90;;;2.50;;
70373;SDS011;57792;49.198;7.890;2022-08-01T02:02:03;5.10;;;2.67;;
70373;SDS011;57792;49.198;7.890;2022-08-01T02:03:06;6.63;;;2.78;;
70373;SDS011;57792;49.198;7.890;2022-08-01T02:04:08;6.75;;;2.90;;
70373;SDS011;57792;49.198;7.890;2022-08-01T02:05:10;5.72;;;2.75;;
70373;SDS011;57792;49.198;7.890;2022-08-01T02:06:13;5.50;;;2.65;;
70373;SDS011;57792;49.198;7.890;2022-08-01T02:07:19;6.78;;;2.63;;
70373;SDS011;57792;49.198;7.890;2022-08-01T02:08:22;8.00;;;2.72;;
70373;SDS011;57792;49.198;7.890;2022-08-01T02:09:24;5.10;;;2.78;;
70373;SDS011;57792;49.198;7.890;2022-08-01T02:10:27;4.90;;;2.50;;
70373;SDS011;57792;49.198;7.890;2022-08-01T02:11:29;5.55;;;2.90;;
70373;SDS011;57792;49.198;7.890;2022-08-01T02:12:31;4.60;;;2.67;;
70373;SDS011;57792;49.198;7.890;2022-08-01T02:13:34;6.30;;;2.67;;
70373;SDS011;57792;49.198;7.890;2022-08-01T02:14:37;5.55;;;2.70;;
70373;SDS011;57792;49.198;7.890;2022-08-01T02:15:40;5.18;;;2.42;;
70373;SDS011;57792;49.198;7.890;2022-08-01T02:16:41;4.78;;;2.67;;
70373;SDS011;57792;49.198;7.890;2022-08-01T02:17:46;5.18;;;2.60;;
70373;SDS011;57792;49.198;7.890;2022-08-01T02:18:48;4.90;;;2.67;;
70373;SDS011;57792;49.198;7.890;2022-08-01T02:19:49;5.95;;;2.67;;
70373;SDS011;57792;49.198;7.890;2022-08-01T02:20:50;7.47;;;2.80;;
70373;SDS011;57792;49.198;7.890;2022-08-01T02:21:55;7.00;;;2.30;;
70373;SDS011;57792;49.198;7.890;2022-08-01T02:23:01;5.90;;;3.00;;
70373;SDS011;57792;49.198;7.890;2022-08-01T02:24:15;5.03;;;2.60;;
70373;SDS011;57792;49.198;7.890;2022-08-01T02:25:22;5.38;;;2.47;;
70373;SDS011;57792;49.198;7.890;2022-08-01T02:26:26;5.28;;;2.53;;
70373;SDS011;57792;49.198;7.890;2022-08-01T02:27:42;4.93;;;2.67;;
70373;SDS011;57792;49.198;7.890;2022-08-01T02:28:53;5.22;;;2.70;;
70373;SDS011;57792;49.198;7.890;2022-08-01T02:30:03;5.47;;;2.78;;
70373;SDS011;57792;49.198;7.890;2022-08-01T02:31:08;5.30;;;2.60;;
70373;SDS011;57792;49.198;7.890;2022-08-01T02:32:14;5.67;;;2.83;;
70373;SDS011;57792;49.198;7.890;2022-08-01T02:33:42;6.68;;;2.65;;
70373;SDS011;57792;49.198;7.890;2022-08-01T02:34:46;5.57;;;2.65;;
70373;SDS011;57792;49.198;7.890;2022-08-01T02:35:52;5.03;;;2.80;;
70373;SDS011;57792;49.198;7.890;2022-08-01T02:36:56;4.60;;;2.58;;
70373;SDS011;57792;49.198;7.890;2022-08-01T02:38:00;5.25;;;2.60;;
70373;SDS011;57792;49.198;7.890;2022-08-01T02:39:05;5.68;;;2.60;;
70373;SDS011;57792;49.198;7.890;2022-08-01T02:40:08;4.95;;;2.50;;
70373;SDS011;57792;49.198;7.890;2022-08-01T02:41:14;4.43;;;2.50;;
70373;SDS011;57792;49.198;7.890;2022-08-01T02:42:22;5.28;;;2.80;;
70373;SDS011;57792;49.198;7.890;2022-08-01T02:43:26;7.67;;;2.70;;
70373;SDS011;57792;49.198;7.890;2022-08-01T02:44:28;5.00;;;2.78;;
70373;SDS011;57792;49.198;7.890;2022-08-01T02:45:32;5.03;;;2.55;;
70373;SDS011;57792;49.198;7.890;2022-08-01T02:46:43;6.13;;;2.50;;
70373;SDS011;57792;49.198;7.890;2022-08-01T02:47:49;4.97;;;2.50;;
70373;SDS011;57792;49.198;7.890;2022-08-01T02:48:51;5.25;;;2.50;;
70373;SDS011;57792;49.198;7.890;2022-08-01T02:49:53;5.55;;;2.67;;
70373;SDS011;57792;49.198;7.890;2022-08-01T02:50:57;4.70;;;2.60;;
70373;SDS011;57792;49.198;7.890;2022-08-01T02:52:01;5.28;;;2.67;;
70373;SDS011;57792;49.198;7.890;2022-08-01T02:53:06;6.13;;;2.70;;
70373;SDS011;57792;49.198;7.890;2022-08-01T02:54:10;6.77;;;2.70;;
70373;SDS011;57792;49.198;7.890;2022-08-01T02:55:11;5.93;;;2.70;;
70373;SDS011;57792;49.198;7.890;2022-08-01T02:56:13;6.25;;;2.70;;
70373;SDS011;57792;49.198;7.890;2022-08-01T02:57:15;5.53;;;2.80;;
70373;SDS011;57792;49.198;7.890;2022-08-01T02:58:18;5.28;;;2.53;;
70373;SDS011;57792;49.198;7.890;2022-08-01T02:59:20;4.88;;;2.50;;
70373;SDS011;57792;49.198;7.890;2022-08-01T03:00:25;5.20;;;2.90;;
70373;SDS011;57792;49.198;7.890;2022-08-01T03:01:27;5.43;;;2.72;;
70373;SDS011;57792;49.198;7.890;2022-08-01T03:02:28;6.30;;;2.90;;
70373;SDS011;57792;49.198;7.890;2022-08-01T03:03:30;4.90;;;2.50;;
70373;SDS011;57792;49.198;7.890;2022-08-01T03:04:32;4.78;;;2.42;;
70373;SDS011;57792;49.198;7.890;2022-08-01T03:05:35;5.75;;;2.70;;
70373;SDS011;57792;49.198;7.890;2022-08-01T03:06:39;5.30;;;2.60;;
70373;SDS011;57792;49.198;7.890;2022-08-01T03:07:41;5.15;;;2.72;;
70373;SDS011;57792;49.198;7.890;2022-08-01T03:08:42;5.47;;;2.80;;
70373;SDS011;57792;49.198;7.890;2022-08-01T03:09:44;5.30;;;2.60;;
70373;SDS011;57792;49.198;7.890;2022-08-01T03:10:45;4.63;;;2.50;;
70373;SDS011;57792;49.198;7.890;2022-08-01T03:11:48;5.68;;;2.47;;
70373;SDS011;57792;49.198;7.890;2022-08-01T03:12:49;5.38;;;2.70;;
70373;SDS011;57792;49.198;7.890;2022-08-01T03:13:51;7.13;;;3.10;;
70373;SDS011;57792;49.198;7.890;2022-08-01T03:14:54;5.55;;;2.72;;
70373;SDS011;57792;49.198;7.890;2022-08-01T03:15:56;5.50;;;2.95;;
70373;SDS011;57792;49.198;7.890;2022-08-01T03:16:57;5.43;;;3.10;;
70373;SDS011;57792;49.198;7.890;2022-08-01T03:18:00;4.88;;;2.58;;
70373;SDS011;57792;49.198;7.890;2022-08-01T03:19:02;5.60;;;2.90;;
70373;SDS011;57792;49.198;7.890;2022-08-01T03:20:04;6.72;;;2.75;;
70373;SDS011;57792;49.198;7.890;2022-08-01T03:21:06;5.28;;;2.53;;
70373;SDS011;57792;49.198;7.890;2022-08-01T03:22:08;5.13;;;2.70;;
70373;SDS011;57792;49.198;7.890;2022-08-01T03:23:11;5.05;;;2.65;;
70373;SDS011;57792;49.198;7.890;2022-08-01T03:24:13;6.35;;;2.67;;
70373;SDS011;57792;49.198;7.890;2022-08-01T03:25:15;6.30;;;2.80;;
70373;SDS011;57792;49.198;7.890;2022-08-01T03:26:17;5.05;;;2.65;;
70373;SDS011;57792;49.198;7.890;2022-08-01T03:27:21;4.65;;;2.40;;
70373;SDS011;57792;49.198;7.890;2022-08-01T03:28:24;6.20;;;2.65;;
70373;SDS011;57792;49.198;7.890;2022-08-01T03:29:27;5.95;;;2.50;;
70373;SDS011;57792;49.198;7.890;2022-08-01T03:30:30;6.03;;;2.50;;
70373;SDS011;57792;49.198;7.890;2022-08-01T03:31:34;5.75;;;2.60;;
70373;SDS011;57792;49.198;7.890;2022-08-01T03:32:36;5.13;;;2.87;;
70373;SDS011;57792;49.198;7.890;2022-08-01T03:33:37;5.22;;;2.50;;
70373;SDS011;57792;49.198;7.890;2022-08-01T03:34:37;5.50;;;2.63;;
70373;SDS011;57792;49.198;7.890;2022-08-01T03:35:39;5.40;;;2.37;;
70373;SDS011;57792;49.198;7.890;2022-08-01T03:38:10;5.10;;;2.80;;
70373;SDS011;57792;49.198;7.890;2022-08-01T03:39:17;6.78;;;2.90;;
70373;SDS011;57792;49.198;7.890;2022-08-01T03:40:31;5.80;;;2.67;;
70373;SDS011;57792;49.198;7.890;2022-08-01T03:41:37;4.70;;;2.53;;
70373;SDS011;57792;49.198;7.890;2022-08-01T03:42:42;4.75;;;2.60;;
70373;SDS011;57792;49.198;7.890;2022-08-01T03:44:05;4.53;;;2.40;;
70373;SDS011;57792;49.198;7.890;2022-08-01T03:45:11;4.90;;;2.50;;
70373;SDS011;57792;49.198;7.890;2022-08-01T03:46:42;5.83;;;2.80;;
70373;SDS011;57792;49.198;7.890;2022-08-01T03:47:43;5.70;;;2.50;;
70373;SDS011;57792;49.198;7.890;2022-08-01T03:48:47;5.38;;;2.50;;
70373;SDS011;57792;49.198;7.890;2022-08-01T03:49:48;4.80;;;2.63;;
70373;SDS011;57792;49.198;7.890;2022-08-01T03:50:52;4.50;;;2.50;;
70373;SDS011;57792;49.198;7.890;2022-08-01T03:51:52;5.88;;;2.50;;
70373;SDS011;57792;49.198;7.890;2022-08-01T03:52:54;5.78;;;2.70;;
70373;SDS011;57792;49.198;7.890;2022-08-01T03:53:59;7.40;;;2.60;;
70373;SDS011;57792;49.198;7.890;2022-08-01T03:55:04;4.95;;;2.60;;
70373;SDS011;57792;49.198;7.890;2022-08-01T03:56:09;6.15;;;3.17;;
70373;SDS011;57792;49.198;7.890;2022-08-01T03:57:11;5.28;;;2.83;;
70373;SDS011;57792;49.198;7.890;2022-08-01T03:58:11;6.25;;;2.60;;
70373;SDS011;57792;49.198;7.890;2022-08-01T03:59:13;5.95;;;2.60;;
70373;SDS011;57792;49.198;7.890;2022-08-01T04:00:16;5.47;;;2.40;;
70373;SDS011;57792;49.198;7.890;2022-08-01T04:01:18;4.90;;;2.60;;
70373;SDS011;57792;49.198;7.890;2022-08-01T04:02:19;5.53;;;2.40;;
70373;SDS011;57792;49.198;7.890;2022-08-01T04:03:21;5.40;;;2.60;;
70373;SDS011;57792;49.198;7.890;2022-08-01T04:04:23;6.05;;;2.70;;
70373;SDS011;57792;49.198;7.890;2022-08-01T04:05:24;5.05;;;2.70;;
70373;SDS011;57792;49.198;7.890;2022-08-01T04:06:25;4.78;;;2.50;;
70373;SDS011;57792;49.198;7.890;2022-08-01T04:07:28;5.20;;;2.50;;
70373;SDS011;57792;49.198;7.890;2022-08-01T04:08:35;5.50;;;2.50;;
70373;SDS011;57792;49.198;7.890;2022-08-01T04:09:36;4.90;;;2.65;;
70373;SDS011;57792;49.198;7.890;2022-08-01T04:10:37;6.00;;;2.90;;
70373;SDS011;57792;49.198;7.890;2022-08-01T04:11:38;4.70;;;2.42;;
70373;SDS011;57792;49.198;7.890;2022-08-01T04:12:39;4.65;;;2.58;;
70373;SDS011;57792;49.198;7.890;2022-08-01T04:13:40;5.40;;;2.40;;
70373;SDS011;57792;49.198;7.890;2022-08-01T04:14:40;5.57;;;2.60;;
70373;SDS011;57792;49.198;7.890;2022-08-01T04:15:41;5.20;;;2.50;;
70373;SDS011;57792;49.198;7.890;2022-08-01T04:16:41;5.00;;;2.40;;
70373;SDS011;57792;49.198;7.890;2022-08-01T04:17:41;6.10;;;2.50;;
70373;SDS011;57792;49.198;7.890;2022-08-01T04:18:42;5.20;;;2.85;;
70373;SDS011;57792;49.198;7.890;2022-08-01T04:19:43;4.83;;;2.53;;
70373;SDS011;57792;49.198;7.890;2022-08-01T04:20:45;5.95;;;2.70;;
70373;SDS011;57792;49.198;7.890;2022-08-01T04:21:46;4.77;;;2.50;;
70373;SDS011;57792;49.198;7.890;2022-08-01T04:22:47;5.45;;;2.60;;
70373;SDS011;57792;49.198;7.890;2022-08-01T04:23:47;5.30;;;2.70;;
70373;SDS011;57792;49.198;7.890;2022-08-01T04:24:53;5.13;;;2.60;;
70373;SDS011;57792;49.198;7.890;2022-08-01T04:25:57;5.03;;;2.65;;
70373;SDS011;57792;49.198;7.890;2022-08-01T04:27:01;5.15;;;2.70;;
70373;SDS011;57792;49.198;7.890;2022-08-01T04:28:05;5.40;;;2.80;;
70373;SDS011;57792;49.198;7.890;2022-08-01T04:29:11;6.30;;;2.60;;
70373;SDS011;57792;49.198;7.890;2022-08-01T04:30:14;5.65;;;2.83;;
70373;SDS011;57792;49.198;7.890;2022-08-01T04:31:17;5.40;;;2.88;;
70373;SDS011;57792;49.198;7.890;2022-08-01T04:32:19;9.25;;;2.60;;
70373;SDS011;57792;49.198;7.890;2022-08-01T04:33:22;4.97;;;2.65;;
70373;SDS011;57792;49.198;7.890;2022-08-01T04:34:25;4.60;;;2.38;;
70373;SDS011;57792;49.198;7.890;2022-08-01T04:35:30;5.57;;;2.70;;
70373;SDS011;57792;49.198;7.890;2022-08-01T04:36:33;5.85;;;2.75;;
70373;SDS011;57792;49.198;7.890;2022-08-01T04:37:36;5.03;;;2.70;;
70373;SDS011;57792;49.198;7.890;2022-08-01T04:38:38;5.60;;;2.53;;
70373;SDS011;57792;49.198;7.890;2022-08-01T04:39:42;5.05;;;2.75;;
70373;SDS011;57792;49.198;7.890;2022-08-01T04:40:44;4.93;;;2.53;;
70373;SDS011;57792;49.198;7.890;2022-08-01T04:41:46;5.53;;;2.90;;
70373;SDS011;57792;49.198;7.890;2022-08-01T04:42:48;7.68;;;3.03;;
70373;SDS011;57792;49.198;7.890;2022-08-01T04:43:49;5.65;;;2.90;;
70373;SDS011;57792;49.198;7.890;2022-08-01T04:44:51;6.20;;;2.50;;
70373;SDS011;57792;49.198;7.890;2022-08-01T04:45:52;6.10;;;2.77;;
70373;SDS011;57792;49.198;7.890;2022-08-01T04:46:54;5.00;;;2.80;;
70373;SDS011;57792;49.198;7.890;2022-08-01T04:47:56;5.88;;;2.88;;
70373;SDS011;57792;49.198;7.890;2022-08-01T04:48:57;4.60;;;2.53;;
70373;SDS011;57792;49.198;7.890;2022-08-01T04:49:58;4.80;;;2.72;;
70373;SDS011;57792;49.198;7.890;2022-08-01T04:50:59;5.43;;;2.60;;
70373;SDS011;57792;49.198;7.890;2022-08-01T04:52:00;5.35;;;2.65;;
70373;SDS011;57792;49.198;7.890;2022-08-01T04:53:01;6.10;;;2.90;;
70373;SDS011;57792;49.198;7.890;2022-08-01T04:54:03;5.28;;;2.40;;
70373;SDS011;57792;49.198;7.890;2022-08-01T04:55:04;5.30;;;3.05;;
70373;SDS011;57792;49.198;7.890;2022-08-01T04:56:08;7.20;;;2.85;;
70373;SDS011;57792;49.198;7.890;2022-08-01T04:57:09;6.43;;;3.00;;
70373;SDS011;57792;49.198;7.890;2022-08-01T04:58:10;4.80;;;2.60;;
70373;SDS011;57792;49.198;7.890;2022-08-01T04:59:11;9.43;;;3.08;;
70373;SDS011;57792;49.198;7.890;2022-08-01T05:00:30;5.53;;;2.85;;
70373;SDS011;57792;49.198;7.890;2022-08-01T05:01:30;5.43;;;2.77;;
70373;SDS011;57792;49.198;7.890;2022-08-01T05:02:31;5.00;;;2.90;;
70373;SDS011;57792;49.198;7.890;2022-08-01T05:03:31;4.82;;;2.78;;
70373;SDS011;57792;49.198;7.890;2022-08-01T05:04:32;8.50;;;3.00;;
70373;SDS011;57792;49.198;7.890;2022-08-01T05:05:33;4.95;;;2.72;;
70373;SDS011;57792;49.198;7.890;2022-08-01T05:06:33;5.57;;;2.77;;
70373;SDS011;57792;49.198;7.890;2022-08-01T05:07:33;7.43;;;2.90;;
70373;SDS011;57792;49.198;7.890;2022-08-01T05:08:36;5.13;;;2.80;;
70373;SDS011;57792;49.198;7.890;2022-08-01T05:09:36;6.60;;;2.90;;
70373;SDS011;57792;49.198;7.890;2022-08-01T05:10:37;6.10;;;3.00;;
70373;SDS011;57792;49.198;7.890;2022-08-01T05:11:38;5.50;;;2.85;;
70373;SDS011;57792;49.198;7.890;2022-08-01T05:12:38;5.70;;;2.90;;
70373;SDS011;57792;49.198;7.890;2022-08-01T05:13:38;5.67;;;2.80;;
70373;SDS011;57792;49.198;7.890;2022-08-01T05:14:39;6.93;;;3.03;;
70373;SDS011;57792;49.198;7.890;2022-08-01T05:15:40;6.57;;;3.10;;
70373;SDS011;57792;49.198;7.890;2022-08-01T05:16:41;4.72;;;2.78;;
70373;SDS011;57792;49.198;7.890;2022-08-01T05:17:41;5.70;;;3.20;;
70373;SDS011;57792;49.198;7.890;2022-08-01T05:18:42;5.97;;;3.00;;
70373;SDS011;57792;49.198;7.890;2022-08-01T05:19:42;5.20;;;2.83;;
70373;SDS011;57792;49.198;7.890;2022-08-01T05:20:42;4.83;;;2.70;;
70373;SDS011;57792;49.198;7.890;2022-08-01T05:21:43;6.75;;;2.95;;
70373;SDS011;57792;49.198;7.890;2022-08-01T05:22:43;6.57;;;2.73;;
70373;SDS011;57792;49.198;7.890;2022-08-01T05:23:44;5.60;;;2.90;;
70373;SDS011;57792;49.198;7.890;2022-08-01T05:24:44;5.20;;;2.70;;
70373;SDS011;57792;49.198;7.890;2022-08-01T05:25:46;5.95;;;2.65;;
70373;SDS011;57792;49.198;7.890;2022-08-01T05:26:46;5.50;;;2.70;;
70373;SDS011;57792;49.198;7.890;2022-08-01T05:27:47;4.60;;;2.50;;
70373;SDS011;57792;49.198;7.890;2022-08-01T05:28:47;7.43;;;3.40;;
70373;SDS011;57792;49.198;7.890;2022-08-01T05:29:47;5.30;;;3.07;;
70373;SDS011;57792;49.198;7.890;2022-08-01T05:30:48;5.00;;;2.55;;
70373;SDS011;57792;49.198;7.890;2022-08-01T05:31:48;4.80;;;2.53;;
70373;SDS011;57792;49.198;7.890;2022-08-01T05:32:49;5.80;;;3.28;;
70373;SDS011;57792;49.198;7.890;2022-08-01T05:33:49;4.60;;;2.70;;
70373;SDS011;57792;49.198;7.890;2022-08-01T05:34:50;5.40;;;2.60;;
70373;SDS011;57792;49.198;7.890;2022-08-01T05:35:50;5.07;;;2.67;;
70373;SDS011;57792;49.198;7.890;2022-08-01T05:36:51;4.45;;;2.40;;
70373;SDS011;57792;49.198;7.890;2022-08-01T05:37:51;4.80;;;2.43;;
70373;SDS011;57792;49.198;7.890;2022-08-01T05:38:52;6.15;;;2.60;;
70373;SDS011;57792;49.198;7.890;2022-08-01T05:39:52;5.60;;;2.60;;
70373;SDS011;57792;49.198;7.890;2022-08-01T05:40:52;5.10;;;2.63;;
70373;SDS011;57792;49.198;7.890;2022-08-01T05:41:53;6.30;;;2.67;;
70373;SDS011;57792;49.198;7.890;2022-08-01T05:42:53;5.03;;;2.60;;
70373;SDS011;57792;49.198;7.890;2022-08-01T05:43:53;5.73;;;2.67;;
70373;SDS011;57792;49.198;7.890;2022-08-01T05:44:54;5.53;;;2.80;;
70373;SDS011;57792;49.198;7.890;2022-08-01T05:45:54;5.93;;;2.53;;
70373;SDS011;57792;49.198;7.890;2022-08-01T05:46:55;5.37;;;2.90;;
70373;SDS011;57792;49.198;7.890;2022-08-01T05:47:55;6.20;;;2.70;;
70373;SDS011;57792;49.198;7.890;2022-08-01T05:48:58;5.65;;;2.70;;
70373;SDS011;57792;49.198;7.890;2022-08-01T05:49:59;5.00;;;2.50;;
70373;SDS011;57792;49.198;7.890;2022-08-01T05:50:59;6.43;;;2.60;;
70373;SDS011;57792;49.198;7.890;2022-08-01T05:52:00;6.40;;;2.50;;
70373;SDS011;57792;49.198;7.890;2022-08-01T05:53:01;5.03;;;2.47;;
70373;SDS011;57792;49.198;7.890;2022-08-01T05:54:02;5.40;;;2.63;;
70373;SDS011;57792;49.198;7.890;2022-08-01T05:55:03;4.95;;;2.35;;
70373;SDS011;57792;49.198;7.890;2022-08-01T05:56:04;4.70;;;2.53;;
70373;SDS011;57792;49.198;7.890;2022-08-01T05:57:04;5.17;;;2.30;;
70373;SDS011;57792;49.198;7.890;2022-08-01T05:58:05;4.57;;;2.20;;
70373;SDS011;57792;49.198;7.890;2022-08-01T05:59:06;4.90;;;2.30;;
70373;SDS011;57792;49.198;7.890;2022-08-01T06:00:07;5.72;;;2.30;;
70373;SDS011;57792;49.198;7.890;2022-08-01T06:01:08;4.40;;;2.10;;
70373;SDS011;57792;49.198;7.890;2022-08-01T06:02:08;4.20;;;1.93;;
70373;SDS011;57792;49.198;7.890;2022-08-01T06:03:08;4.73;;;2.00;;
70373;SDS011;57792;49.198;7.890;2022-08-01T06:04:11;4.63;;;2.20;;
70373;SDS011;57792;49.198;7.890;2022-08-01T06:05:11;5.20;;;2.20;;
70373;SDS011;57792;49.198;7.890;2022-08-01T06:06:12;5.43;;;1.83;;
70373;SDS011;57792;49.198;7.890;2022-08-01T06:07:14;4.63;;;2.17;;
70373;SDS011;57792;49.198;7.890;2022-08-01T06:08:14;4.90;;;2.13;;
70373;SDS011;57792;49.198;7.890;2022-08-01T06:09:14;4.23;;;2.00;;
70373;SDS011;57792;49.198;7.890;2022-08-01T06:10:15;5.10;;;2.13;;
70373;SDS011;57792;49.198;7.890;2022-08-01T06:11:15;4.60;;;1.90;;
70373;SDS011;57792;49.198;7.890;2022-08-01T06:12:15;4.00;;;1.90;;
70373;SDS011;57792;49.198;7.890;2022-08-01T06:13:16;4.87;;;1.90;;
70373;SDS011;57792;49.198;7.890;2022-08-01T06:14:18;5.32;;;2.10;;
70373;SDS011;57792;49.198;7.890;2022-08-01T06:15:18;6.35;;;2.20;;
70373;SDS011;57792;49.198;7.890;2022-08-01T06:16:18;5.03;;;2.00;;
70373;SDS011;57792;49.198;7.890;2022-08-01T06:17:19;5.23;;;2.10;;
70373;SDS011;57792;49.198;7.890;2022-08-01T06:18:19;3.85;;;1.77;;
70373;SDS011;57792;49.198;7.890;2022-08-01T06:19:20;5.53;;;1.80;;
70373;SDS011;57792;49.198;7.890;2022-08-01T06:20:20;4.53;;;2.10;;
70373;SDS011;57792;49.198;7.890;2022-08-01T06:21:21;4.15;;;2.10;;
70373;SDS011;57792;49.198;7.890;2022-08-01T06:22:21;4.13;;;1.80;;
70373;SDS011;57792;49.198;7.890;2022-08-01T06:23:22;5.85;;;2.10;;
70373;SDS011;57792;49.198;7.890;2022-08-01T06:24:22;4.83;;;2.20;;
70373;SDS011;57792;49.198;7.890;2022-08-01T06:25:23;4.50;;;2.33;;
70373;SDS011;57792;49.198;7.890;2022-08-01T06:26:24;5.23;;;2.00;;
70373;SDS011;57792;49.198;7.890;2022-08-01T06:27:24;4.33;;;2.00;;
70373;SDS011;57792;49.198;7.890;2022-08-01T06:28:25;4.45;;;2.00;;